createdAt,value
2016-11-07T00:00:12.561Z,984.2
2016-11-07T00:01:22.847Z,984.19
2016-11-07T00:02:32.853Z,984.21
2016-11-07T00:03:42.824Z,984.26
2016-11-07T00:04:52.807Z,984.29
2016-11-07T00:06:02.786Z,984.29
2016-11-07T00:07:12.444Z,984.37
2016-11-07T00:08:22.438Z,984.41
2016-11-07T00:09:32.404Z,984.38
2016-11-07T00:10:42.691Z,984.45
2016-11-07T00:11:52.973Z,984.49
2016-11-07T00:13:02.948Z,984.5
2016-11-07T00:14:12.920Z,984.5
2016-11-07T00:15:23.227Z,984.48
2016-11-07T00:16:33.190Z,984.49
2016-11-07T00:17:42.851Z,984.42
2016-11-07T00:18:52.847Z,984.41
2016-11-07T00:20:03.154Z,984.42
2016-11-07T00:21:12.196Z,984.44
2016-11-07T00:22:22.161Z,984.45
2016-11-07T00:23:32.136Z,984.45
2016-11-07T00:24:42.415Z,984.43
2016-11-07T00:25:52.376Z,984.42
2016-11-07T00:27:02.363Z,984.42
2016-11-07T00:28:12.654Z,984.46
2016-11-07T00:29:22.962Z,984.43
2016-11-07T00:30:33.253Z,984.49
2016-11-07T00:31:43.229Z,984.45
2016-11-07T00:32:53.531Z,984.53
2016-11-07T00:34:03.199Z,984.6
2016-11-07T00:35:13.470Z,984.61
2016-11-07T00:36:22.832Z,984.65
2016-11-07T00:37:32.498Z,984.68
2016-11-07T00:38:42.172Z,984.62
2016-11-07T00:39:52.456Z,984.63
2016-11-07T00:41:02.733Z,984.66
2016-11-07T00:42:12.699Z,984.64
2016-11-07T00:43:23.017Z,984.68
2016-11-07T00:44:32.994Z,984.7
2016-11-07T00:45:42.964Z,984.76
2016-11-07T00:46:52.620Z,984.73
2016-11-07T00:48:02.895Z,984.69
2016-11-07T00:49:13.214Z,984.7
2016-11-07T00:50:23.511Z,984.6
2016-11-07T00:51:33.163Z,984.59
2016-11-07T00:52:43.125Z,984.54
2016-11-07T00:53:53.411Z,984.53
2016-11-07T00:55:03.688Z,984.49
2016-11-07T00:56:13.659Z,984.4
2016-11-07T00:57:23.622Z,984.36
2016-11-07T00:58:33.903Z,984.33
2016-11-07T00:59:43.863Z,984.29
2016-11-07T01:00:53.849Z,984.3
2016-11-07T01:02:03.816Z,984.26
2016-11-07T01:03:13.789Z,984.28
2016-11-07T01:04:24.062Z,984.27
2016-11-07T01:05:34.066Z,984.22
2016-11-07T01:06:44.357Z,984.14
2016-11-07T01:07:54.332Z,984.15
2016-11-07T01:09:04.610Z,984.23
2016-11-07T01:10:14.279Z,984.25
2016-11-07T01:11:24.560Z,984.27
2016-11-07T01:12:34.843Z,984.21
2016-11-07T01:13:44.839Z,984.12
2016-11-07T01:14:54.501Z,984.13
2016-11-07T01:16:04.468Z,984.08
2016-11-07T01:17:14.445Z,984.06
2016-11-07T01:18:24.437Z,984.1
2016-11-07T01:19:34.435Z,984.14
2016-11-07T01:20:44.096Z,984.16
2016-11-07T01:21:54.057Z,984.25
2016-11-07T01:23:04.034Z,984.31
2016-11-07T01:24:14.313Z,984.31
2016-11-07T01:25:24.288Z,984.4
2016-11-07T01:26:34.280Z,984.4
2016-11-07T01:27:44.567Z,984.4
2016-11-07T01:28:54.853Z,984.38
2016-11-07T01:30:04.858Z,984.38
2016-11-07T01:31:14.527Z,984.39
2016-11-07T01:32:24.494Z,984.33
2016-11-07T01:33:34.155Z,984.35
2016-11-07T01:34:44.169Z,984.38
2016-11-07T01:35:54.148Z,984.33
2016-11-07T01:37:04.123Z,984.33
2016-11-07T01:38:14.405Z,984.39
2016-11-07T01:39:24.062Z,984.34
2016-11-07T01:40:34.024Z,984.32
2016-11-07T01:41:44.340Z,984.31
2016-11-07T01:42:54.653Z,984.32
2016-11-07T01:44:04.313Z,984.39
2016-11-07T01:45:14.623Z,984.35
2016-11-07T01:46:24.281Z,984.41
2016-11-07T01:47:33.946Z,984.43
2016-11-07T01:48:43.917Z,984.44
2016-11-07T01:49:53.888Z,984.43
2016-11-07T01:51:04.174Z,984.39
2016-11-07T01:52:13.844Z,984.46
2016-11-07T01:53:23.818Z,984.48
2016-11-07T01:54:34.093Z,984.47
2016-11-07T01:55:44.355Z,984.46
2016-11-07T01:56:54.327Z,984.49
2016-11-07T01:58:03.678Z,984.49
2016-11-07T01:59:13.656Z,984.5
2016-11-07T02:00:23.932Z,984.49
2016-11-07T02:01:34.224Z,984.45
2016-11-07T02:02:43.900Z,984.5
2016-11-07T02:03:53.297Z,984.5
2016-11-07T02:05:03.574Z,984.53
2016-11-07T02:06:13.236Z,984.59
2016-11-07T02:07:23.513Z,984.59
2016-11-07T02:08:33.794Z,984.55
2016-11-07T02:09:44.065Z,984.57
2016-11-07T02:10:54.267Z,984.56
2016-11-07T02:12:04.244Z,984.52
2016-11-07T02:13:14.217Z,984.47
2016-11-07T02:14:23.897Z,984.48
2016-11-07T02:15:33.564Z,984.52
2016-11-07T02:16:43.835Z,984.54
2016-11-07T02:17:54.123Z,984.52
2016-11-07T02:19:04.404Z,984.45
2016-11-07T02:20:14.093Z,984.42
2016-11-07T02:21:24.379Z,984.39
2016-11-07T02:22:34.345Z,984.45
2016-11-07T02:23:43.727Z,984.5
2016-11-07T02:24:53.739Z,984.49
2016-11-07T02:26:04.072Z,984.54
2016-11-07T02:27:14.036Z,984.55
2016-11-07T02:28:24.328Z,984.52
2016-11-07T02:29:34.630Z,984.55
2016-11-07T02:30:44.606Z,984.57
2016-11-07T02:31:54.878Z,984.5
2016-11-07T02:33:04.572Z,984.51
2016-11-07T02:34:14.886Z,984.54
2016-11-07T02:35:24.565Z,984.57
2016-11-07T02:36:34.842Z,984.49
2016-11-07T02:37:44.816Z,984.56
2016-11-07T02:38:55.104Z,984.56
2016-11-07T02:40:05.114Z,984.63
2016-11-07T02:41:15.393Z,984.62
2016-11-07T02:42:25.674Z,984.64
2016-11-07T02:43:35.940Z,984.63
2016-11-07T02:44:45.920Z,984.68
2016-11-07T02:45:56.192Z,984.68
2016-11-07T02:47:06.466Z,984.71
2016-11-07T02:48:16.430Z,984.66
2016-11-07T02:49:26.084Z,984.66
2016-11-07T02:50:36.360Z,984.69
2016-11-07T02:51:46.636Z,984.77
2016-11-07T02:52:56.931Z,984.79
2016-11-07T02:54:06.921Z,984.81
2016-11-07T02:55:16.612Z,984.85
2016-11-07T02:56:26.580Z,984.88
2016-11-07T02:57:36.556Z,984.97
2016-11-07T02:58:46.566Z,984.88
2016-11-07T02:59:56.575Z,984.92
2016-11-07T03:01:06.557Z,984.89
2016-11-07T03:31:55.409Z,985.47
2016-11-07T03:33:05.052Z,985.43
2016-11-07T03:34:15.036Z,985.45
2016-11-07T03:35:25.321Z,985.41
2016-11-07T03:36:35.598Z,985.4
2016-11-07T03:37:45.261Z,985.36
2016-11-07T03:38:55.537Z,985.39
2016-11-07T03:40:05.821Z,985.37
2016-11-07T03:41:15.789Z,985.4
2016-11-07T03:42:25.142Z,985.44
2016-11-07T03:43:35.438Z,985.43
2016-11-07T03:44:45.399Z,985.46
2016-11-07T03:45:55.679Z,985.41
2016-11-07T03:47:05.979Z,985.47
2016-11-07T03:48:16.285Z,985.47
2016-11-07T03:49:25.942Z,985.41
2016-11-07T03:50:36.217Z,985.45
2016-11-07T03:51:45.895Z,985.48
2016-11-07T03:52:55.871Z,985.46
2016-11-07T03:54:06.143Z,985.41
2016-11-07T03:55:16.431Z,985.4
2016-11-07T03:56:26.719Z,985.44
2016-11-07T03:57:36.988Z,985.46
2016-11-07T03:58:46.954Z,985.5
2016-11-07T03:59:56.930Z,985.52
2016-11-07T04:01:06.896Z,985.59
2016-11-07T04:02:17.169Z,985.6
2016-11-07T04:03:27.190Z,985.61
2016-11-07T04:04:36.862Z,985.6
2016-11-07T04:05:46.549Z,985.63
2016-11-07T04:06:56.522Z,985.65
2016-11-07T04:08:06.797Z,985.67
2016-11-07T04:09:17.074Z,985.74
2016-11-07T04:10:27.046Z,985.71
2016-11-07T04:11:37.322Z,985.73
2016-11-07T04:12:47.299Z,985.74
2016-11-07T04:13:57.271Z,985.73
2016-11-07T04:15:07.284Z,985.69
2016-11-07T04:16:17.245Z,985.7
2016-11-07T04:17:26.936Z,985.66
2016-11-07T04:18:37.225Z,985.66
2016-11-07T04:19:47.194Z,985.65
2016-11-07T04:20:57.486Z,985.61
2016-11-07T04:22:07.459Z,985.62
2016-11-07T04:23:17.154Z,985.57
2016-11-07T04:24:27.124Z,985.56
2016-11-07T04:25:37.100Z,985.5
2016-11-07T04:26:47.064Z,985.47
2016-11-07T04:27:56.725Z,985.47
2016-11-07T04:29:06.403Z,985.47
2016-11-07T04:30:16.699Z,985.49
2016-11-07T04:31:26.401Z,985.49
2016-11-07T04:32:36.688Z,985.6
2016-11-07T04:33:46.964Z,985.63
2016-11-07T04:34:56.327Z,985.64
2016-11-07T04:36:05.988Z,985.67
2016-11-07T04:37:15.651Z,985.65
2016-11-07T04:38:25.303Z,985.66
2016-11-07T04:39:35.269Z,985.73
2016-11-07T04:40:45.239Z,985.75
2016-11-07T04:41:55.514Z,985.77
2016-11-07T04:43:05.802Z,985.77
2016-11-07T04:44:15.765Z,985.81
2016-11-07T04:45:26.043Z,985.83
2016-11-07T04:46:36.016Z,985.87
2016-11-07T04:47:46.025Z,985.9
2016-11-07T04:48:56.319Z,985.95
2016-11-07T04:50:06.290Z,986.01
2016-11-07T04:51:16.251Z,986.03
2016-11-07T04:52:26.527Z,986.01
2016-11-07T04:53:36.792Z,986.04
2016-11-07T04:54:46.455Z,986.06
2016-11-07T04:55:56.433Z,986.01
2016-11-07T04:57:06.703Z,986.01
2016-11-07T04:58:16.359Z,986
2016-11-07T04:59:25.726Z,985.97
2016-11-07T05:00:36.003Z,985.95
2016-11-07T05:01:45.654Z,985.98
2016-11-07T05:02:55.941Z,985.99
2016-11-07T05:04:06.218Z,986.05
2016-11-07T05:05:16.495Z,986.01
2016-11-07T05:06:26.154Z,985.99
2016-11-07T05:07:36.474Z,985.99
2016-11-07T05:08:46.750Z,986
2016-11-07T05:09:57.038Z,986
2016-11-07T05:11:06.709Z,986.04
2016-11-07T05:12:16.691Z,986.01
2016-11-07T05:13:26.976Z,986.01
2016-11-07T05:14:36.950Z,986.06
2016-11-07T05:15:47.261Z,986.06
2016-11-07T05:16:57.573Z,986.06
2016-11-07T05:18:07.538Z,986.05
2016-11-07T05:19:17.550Z,986.07
2016-11-07T05:20:27.528Z,986.07
2016-11-07T05:21:37.868Z,986.14
2016-11-07T05:22:47.882Z,986.16
2016-11-07T05:23:57.552Z,986.22
2016-11-07T05:25:07.530Z,986.29
2016-11-07T05:26:17.500Z,986.34
2016-11-07T05:27:27.166Z,986.37
2016-11-07T05:28:37.138Z,986.34
2016-11-07T05:29:46.816Z,986.38
2016-11-07T05:30:56.777Z,986.37
2016-11-07T05:32:06.773Z,986.38
2016-11-07T05:33:17.042Z,986.31
2016-11-07T05:34:27.318Z,986.32
2016-11-07T05:35:37.600Z,986.27
2016-11-07T05:36:47.897Z,986.24
2016-11-07T05:37:58.195Z,986.2
2016-11-07T05:39:08.474Z,986.17
2016-11-07T05:40:18.441Z,986.29
2016-11-07T05:41:28.717Z,986.3
2016-11-07T05:42:39.000Z,986.34
2016-11-07T05:43:49.278Z,986.41
2016-11-07T05:44:59.251Z,986.45
2016-11-07T05:46:09.535Z,986.48
2016-11-07T05:47:19.189Z,986.57
2016-11-07T05:48:29.186Z,986.52
2016-11-07T05:49:39.461Z,986.57
2016-11-07T05:50:48.820Z,986.65
2016-11-07T05:51:58.797Z,986.69
2016-11-07T05:53:09.074Z,986.71
2016-11-07T05:54:19.347Z,986.73
2016-11-07T05:55:29.637Z,986.78
2016-11-07T05:56:39.936Z,986.81
2016-11-07T05:57:49.905Z,986.88
2016-11-07T05:58:59.887Z,986.9
2016-11-07T06:00:09.544Z,986.95
2016-11-07T06:01:19.841Z,986.95
2016-11-07T06:02:30.164Z,986.92
2016-11-07T06:03:40.135Z,986.94
2016-11-07T06:04:49.796Z,986.9
2016-11-07T06:06:00.097Z,986.94
2016-11-07T06:07:10.384Z,986.9
2016-11-07T06:08:20.660Z,986.91
2016-11-07T06:09:30.641Z,986.94
2016-11-07T06:10:40.910Z,986.94
2016-11-07T06:11:51.196Z,986.99
2016-11-07T06:13:01.499Z,987.01
2016-11-07T06:14:11.774Z,987.02
2016-11-07T06:15:21.728Z,986.99
2016-11-07T06:16:32.022Z,987.02
2016-11-07T06:17:42.034Z,987
2016-11-07T06:18:51.730Z,987.01
2016-11-07T06:20:02.008Z,987.08
2016-11-07T06:21:11.395Z,987.07
2016-11-07T06:22:21.366Z,987.11
2016-11-07T06:23:31.368Z,987.08
2016-11-07T06:24:41.029Z,987.13
2016-11-07T06:25:51.001Z,987.17
2016-11-07T06:27:01.278Z,987.2
2016-11-07T06:28:11.559Z,987.2
2016-11-07T06:29:21.520Z,987.18
2016-11-07T06:30:31.173Z,987.17
2016-11-07T06:31:41.162Z,987.22
2016-11-07T06:32:51.127Z,987.21
2016-11-07T06:34:01.408Z,987.17
2016-11-07T06:35:11.689Z,987.22
2016-11-07T06:36:22.013Z,987.2
2016-11-07T06:37:31.682Z,987.2
2016-11-07T06:38:41.975Z,987.21
2016-11-07T06:39:51.951Z,987.25
2016-11-07T06:41:02.224Z,987.28
2016-11-07T06:42:12.511Z,987.29
2016-11-07T06:43:22.486Z,987.27
2016-11-07T06:44:32.482Z,987.28
2016-11-07T06:45:42.751Z,987.33
2016-11-07T06:46:53.025Z,987.35
2016-11-07T06:48:03.308Z,987.42
2016-11-07T06:49:13.269Z,987.39
2016-11-07T06:50:23.231Z,987.41
2016-11-07T06:51:33.216Z,987.47
2016-11-07T06:52:43.526Z,987.43
2016-11-07T06:53:53.821Z,987.47
2016-11-07T06:55:04.102Z,987.54
2016-11-07T06:56:14.392Z,987.5
2016-11-07T06:57:24.665Z,987.58
2016-11-07T06:58:34.627Z,987.5
2016-11-07T06:59:44.600Z,987.51
2016-11-07T07:00:54.266Z,987.53
2016-11-07T07:02:04.257Z,987.46
2016-11-07T07:03:14.239Z,987.52
2016-11-07T07:04:24.557Z,987.51
2016-11-07T07:05:34.214Z,987.45
2016-11-07T07:06:44.192Z,987.46
2016-11-07T07:07:54.471Z,987.36
2016-11-07T07:09:04.434Z,987.27
2016-11-07T07:10:14.390Z,987.25
2016-11-07T07:11:24.686Z,987.22
2016-11-07T07:12:34.655Z,987.27
2016-11-07T07:13:44.624Z,987.32
2016-11-07T07:14:54.629Z,987.35
2016-11-07T07:16:04.623Z,987.41
2016-11-07T07:17:14.290Z,987.43
2016-11-07T07:18:24.579Z,987.46
2016-11-07T07:19:34.574Z,987.52
2016-11-07T07:20:44.562Z,987.46
2016-11-07T07:21:54.883Z,987.39
2016-11-07T07:23:04.558Z,987.34
2016-11-07T07:24:14.232Z,987.35
2016-11-07T07:25:24.206Z,987.39
2016-11-07T07:26:34.208Z,987.5
2016-11-07T07:27:44.487Z,987.57
2016-11-07T07:28:54.457Z,987.63
2016-11-07T07:30:04.433Z,987.65
2016-11-07T07:31:14.400Z,987.63
2016-11-07T07:32:24.389Z,987.62
2016-11-07T07:33:34.358Z,987.54
2016-11-07T07:34:44.027Z,987.52
2016-11-07T07:35:54.307Z,987.52
2016-11-07T07:37:04.613Z,987.51
2016-11-07T07:38:14.281Z,987.54
2016-11-07T07:39:24.297Z,987.57
2016-11-07T07:40:33.963Z,987.62
2016-11-07T07:41:44.238Z,987.62
2016-11-07T07:42:54.519Z,987.64
2016-11-07T07:44:04.483Z,987.67
2016-11-07T07:45:14.154Z,987.69
2016-11-07T07:46:24.155Z,987.72
2016-11-07T07:47:34.464Z,987.88
2016-11-07T07:48:44.739Z,987.8
2016-11-07T07:49:54.707Z,987.83
2016-11-07T07:51:04.694Z,987.84
2016-11-07T07:52:14.707Z,987.82
2016-11-07T07:53:24.687Z,987.81
2016-11-07T07:54:35.017Z,987.91
2016-11-07T07:55:45.302Z,987.93
2016-11-07T07:56:55.268Z,987.99
2016-11-07T07:58:05.564Z,988.07
2016-11-07T07:59:15.881Z,988.1
2016-11-07T08:00:26.202Z,988.09
2016-11-07T08:01:36.489Z,988.13
2016-11-07T08:02:46.759Z,988.13
2016-11-07T08:03:57.043Z,988.17
2016-11-07T08:05:07.324Z,988.12
2016-11-07T08:06:17.327Z,988.19
2016-11-07T08:07:27.323Z,988.17
2016-11-07T08:08:36.985Z,988.15
2016-11-07T08:09:47.261Z,988.2
2016-11-07T08:10:57.551Z,988.21
2016-11-07T08:12:07.214Z,988.24
2016-11-07T08:13:17.191Z,988.23
2016-11-07T08:14:27.473Z,988.19
2016-11-07T08:15:37.447Z,988.23
2016-11-07T08:16:47.416Z,988.22
2016-11-07T08:17:57.708Z,988.24
2016-11-07T08:19:07.370Z,988.2
2016-11-07T08:20:17.051Z,988.21
2016-11-07T08:21:26.725Z,988.13
2016-11-07T08:22:37.010Z,988.21
2016-11-07T08:23:46.721Z,988.17
2016-11-07T08:24:56.693Z,988.21
2016-11-07T08:26:06.365Z,988.16
2016-11-07T08:27:16.020Z,988.26
2016-11-07T08:28:25.687Z,988.28
2016-11-07T08:29:36.019Z,988.3
2016-11-07T08:30:45.396Z,988.26
2016-11-07T08:31:55.383Z,988.3
2016-11-07T08:33:05.367Z,988.28
2016-11-07T08:34:14.426Z,988.26
2016-11-07T08:35:24.708Z,988.36
2016-11-07T08:36:34.076Z,988.34
2016-11-07T08:37:44.090Z,988.37
2016-11-07T08:38:53.748Z,988.32
2016-11-07T08:40:03.734Z,988.36
2016-11-07T08:41:14.007Z,988.37
2016-11-07T08:42:24.293Z,988.38
2016-11-07T08:43:34.259Z,988.42
2016-11-07T08:44:44.251Z,988.4
2016-11-07T08:45:54.528Z,988.42
2016-11-07T08:47:04.506Z,988.4
2016-11-07T08:48:14.482Z,988.45
2016-11-07T08:49:24.457Z,988.47
2016-11-07T08:50:34.434Z,988.48
2016-11-07T08:51:44.722Z,988.47
2016-11-07T08:52:54.731Z,988.45
2016-11-07T08:54:05.009Z,988.46
2016-11-07T08:55:14.676Z,988.49
2016-11-07T08:56:24.642Z,988.53
2016-11-07T08:57:33.995Z,988.42
2016-11-07T08:58:43.974Z,988.48
2016-11-07T08:59:53.980Z,988.52
2016-11-07T09:01:03.953Z,988.53
2016-11-07T09:02:14.235Z,988.48
2016-11-07T09:03:24.218Z,988.54
2016-11-07T09:04:34.181Z,988.48
2016-11-07T09:05:44.170Z,988.55
2016-11-07T09:06:54.507Z,988.56
2016-11-07T09:08:04.811Z,988.58
2016-11-07T09:09:15.081Z,988.55
2016-11-07T09:10:25.368Z,988.6
2016-11-07T09:11:35.659Z,988.58
2016-11-07T09:12:45.936Z,988.56
2016-11-07T09:13:55.923Z,988.6
2016-11-07T09:15:05.601Z,988.66
2016-11-07T09:16:15.581Z,988.62
2016-11-07T09:17:25.560Z,988.66
2016-11-07T09:18:35.576Z,988.68
2016-11-07T09:19:45.236Z,988.65
2016-11-07T09:20:54.913Z,988.76
2016-11-07T09:22:04.878Z,988.8
2016-11-07T09:23:15.162Z,988.81
2016-11-07T09:24:25.153Z,988.83
2016-11-07T09:25:35.145Z,988.82
2016-11-07T09:26:45.423Z,988.83
2016-11-07T09:27:55.408Z,988.84
2016-11-07T09:29:05.389Z,988.86
2016-11-07T09:30:15.396Z,988.87
2016-11-07T09:31:25.694Z,988.85
2016-11-07T09:32:35.976Z,988.86
2016-11-07T09:33:45.967Z,988.88
2016-11-07T09:34:55.934Z,988.78
2016-11-07T09:36:05.606Z,988.76
2016-11-07T09:37:15.898Z,988.75
2016-11-07T09:38:25.864Z,988.73
2016-11-07T09:39:36.184Z,988.78
2016-11-07T09:40:46.486Z,988.77
2016-11-07T09:41:56.767Z,988.82
2016-11-07T09:43:07.046Z,988.86
2016-11-07T09:44:17.332Z,988.88
2016-11-07T09:45:27.314Z,988.94
2016-11-07T09:46:37.294Z,988.94
2016-11-07T09:47:47.581Z,988.95
2016-11-07T09:48:57.608Z,988.89
2016-11-07T09:50:07.579Z,988.85
2016-11-07T09:51:17.881Z,988.83
2016-11-07T09:52:27.563Z,988.84
2016-11-07T09:53:37.545Z,988.93
2016-11-07T09:54:47.218Z,989.04
2016-11-07T09:55:56.903Z,989
2016-11-07T09:57:06.606Z,988.98
2016-11-07T09:58:16.906Z,989.01
2016-11-07T09:59:27.199Z,989.01
2016-11-07T10:00:37.171Z,988.99
2016-11-07T10:01:47.453Z,988.94
2016-11-07T10:02:56.859Z,988.98
2016-11-07T10:04:07.150Z,988.99
2016-11-07T10:05:17.132Z,988.94
2016-11-07T10:06:27.434Z,988.92
2016-11-07T10:07:37.720Z,988.89
2016-11-07T10:08:48.012Z,988.88
2016-11-07T10:09:58.303Z,988.91
2016-11-07T10:11:08.280Z,988.83
2016-11-07T10:12:18.263Z,988.78
2016-11-07T10:13:28.253Z,988.85
2016-11-07T10:14:38.226Z,988.84
2016-11-07T10:15:48.512Z,988.89
2016-11-07T10:16:58.834Z,988.88
2016-11-07T10:18:08.496Z,988.9
2016-11-07T10:19:18.824Z,988.9
2016-11-07T10:20:28.818Z,988.86
2016-11-07T10:21:38.788Z,988.9
2016-11-07T10:22:49.127Z,988.85
2016-11-07T10:23:59.108Z,988.89
2016-11-07T10:25:09.085Z,988.9
2016-11-07T10:26:19.373Z,988.99
2016-11-07T10:27:29.355Z,989
2016-11-07T10:28:39.645Z,989.05
2016-11-07T10:29:49.609Z,989.08
2016-11-07T10:30:59.899Z,989.04
2016-11-07T10:32:09.901Z,989
2016-11-07T10:33:18.942Z,989.03
2016-11-07T10:34:29.248Z,988.98
2016-11-07T10:35:39.522Z,988.96
2016-11-07T10:36:49.507Z,988.94
2016-11-07T10:37:59.219Z,988.95
2016-11-07T10:39:09.187Z,988.93
2016-11-07T10:40:19.162Z,988.98
2016-11-07T10:41:29.444Z,988.93
2016-11-07T10:42:39.424Z,988.96
2016-11-07T10:43:49.748Z,988.95
2016-11-07T10:45:00.034Z,988.95
2016-11-07T10:46:10.347Z,988.96
2016-11-07T10:47:20.638Z,988.99
2016-11-07T10:48:30.929Z,988.98
2016-11-07T10:49:41.216Z,988.98
2016-11-07T10:50:50.582Z,988.97
2016-11-07T10:52:00.874Z,988.97
2016-11-07T10:53:10.862Z,989.02
2016-11-07T10:54:20.223Z,988.99
2016-11-07T10:55:30.540Z,989.02
2016-11-07T10:56:40.877Z,989.02
2016-11-07T10:57:51.162Z,989.01
2016-11-07T10:59:01.440Z,989.06
2016-11-07T11:00:11.402Z,989.06
2016-11-07T11:01:21.377Z,989.03
2016-11-07T11:02:31.370Z,989.01
2016-11-07T11:03:41.037Z,989.01
2016-11-07T11:04:51.323Z,989.04
2016-11-07T11:06:01.305Z,989.09
2016-11-07T11:07:10.976Z,989.1
2016-11-07T11:08:20.963Z,989.08
2016-11-07T11:09:31.255Z,989.08
2016-11-07T11:10:40.926Z,989.06
2016-11-07T11:11:51.203Z,989.12
2016-11-07T11:13:01.496Z,989.11
2016-11-07T11:14:11.782Z,989.15
2016-11-07T11:15:21.773Z,989.16
2016-11-07T11:16:31.755Z,989.18
2016-11-07T11:17:42.036Z,989.19
2016-11-07T11:18:51.703Z,989.21
2016-11-07T11:20:01.675Z,989.16
2016-11-07T11:21:11.951Z,989.22
2016-11-07T11:22:21.610Z,989.15
2016-11-07T11:23:31.907Z,989.19
2016-11-07T11:24:41.268Z,989.19
2016-11-07T11:25:51.254Z,989.2
2016-11-07T11:27:01.536Z,989.2
2016-11-07T11:28:11.852Z,989.24
2016-11-07T11:29:21.513Z,989.21
2016-11-07T11:30:31.789Z,989.2
2016-11-07T11:31:41.462Z,989.2
2016-11-07T11:32:51.477Z,989.17
2016-11-07T11:34:01.457Z,989.18
2016-11-07T11:35:11.746Z,989.16
2016-11-07T11:36:22.027Z,989.15
2016-11-07T11:37:32.340Z,989.1
2016-11-07T11:38:42.631Z,989.13
2016-11-07T11:39:52.285Z,989.12
2016-11-07T11:41:02.300Z,989.15
2016-11-07T11:42:12.626Z,989.13
2016-11-07T11:43:22.284Z,989.09
2016-11-07T11:44:32.585Z,989.13
2016-11-07T11:45:42.863Z,989.15
2016-11-07T11:46:52.844Z,989.17
2016-11-07T11:48:02.831Z,989.18
2016-11-07T11:49:13.117Z,989.2
2016-11-07T11:50:23.088Z,989.16
2016-11-07T11:51:32.443Z,989.18
2016-11-07T11:52:42.127Z,989.14
2016-11-07T11:53:52.407Z,989.2
2016-11-07T11:55:02.705Z,989.2
2016-11-07T11:56:13.036Z,989.23
2016-11-07T11:57:23.314Z,989.23
2016-11-07T11:58:33.336Z,989.23
2016-11-07T11:59:43.622Z,989.22
2016-11-07T12:00:53.927Z,989.19
2016-11-07T12:02:04.221Z,989.21
2016-11-07T12:03:14.507Z,989.21
2016-11-07T12:04:24.798Z,989.15
2016-11-07T12:05:34.784Z,989.18
2016-11-07T12:06:45.057Z,989.21
2016-11-07T12:07:55.384Z,989.2
2016-11-07T12:09:05.406Z,989.2
2016-11-07T12:10:15.741Z,989.21
2016-11-07T12:11:26.035Z,989.18
2016-11-07T12:12:36.355Z,989.24
2016-11-07T12:13:46.667Z,989.26
2016-11-07T12:14:56.973Z,989.27
2016-11-07T12:16:06.659Z,989.27
2016-11-07T12:17:17.007Z,989.26
2016-11-07T12:18:27.320Z,989.25
2016-11-07T12:19:37.313Z,989.24
2016-11-07T12:20:47.319Z,989.21
2016-11-07T12:21:57.629Z,989.25
2016-11-07T12:23:07.943Z,989.28
2016-11-07T12:24:18.254Z,989.24
2016-11-07T12:25:28.617Z,989.29
2016-11-07T12:26:38.711Z,989.33
2016-11-07T12:27:48.761Z,989.35
2016-11-07T12:28:58.765Z,989.39
2016-11-07T12:30:09.116Z,989.41
2016-11-07T12:31:19.177Z,989.4
2016-11-07T12:32:29.498Z,989.39
2016-11-07T12:33:39.810Z,989.37
2016-11-07T12:34:49.507Z,989.42
2016-11-07T12:35:59.807Z,989.41
2016-11-07T12:37:12.006Z,989.43
2016-11-07T12:38:22.463Z,989.47
2016-11-07T12:39:34.319Z,989.44
2016-11-07T12:40:45.255Z,989.45
2016-11-07T12:41:55.540Z,989.47
2016-11-07T12:43:07.040Z,989.49
2016-11-07T12:44:17.574Z,989.52
2016-11-07T12:45:28.168Z,989.53
2016-11-07T12:46:39.537Z,989.57
2016-11-07T12:47:49.545Z,989.59
2016-11-07T12:48:59.611Z,989.63
2016-11-07T12:50:09.921Z,989.57
2016-11-07T12:51:19.957Z,989.6
2016-11-07T12:52:30.229Z,989.6
2016-11-07T12:53:40.243Z,989.62
2016-11-07T12:54:50.172Z,989.64
2016-11-07T12:56:00.182Z,989.65
2016-11-07T12:57:10.756Z,989.6
2016-11-07T12:58:20.756Z,989.65
2016-11-07T12:59:30.772Z,989.7
2016-11-07T13:00:40.763Z,989.77
2016-11-07T13:01:51.447Z,989.76
2016-11-07T13:03:01.854Z,989.78
2016-11-07T13:04:12.035Z,989.78
2016-11-07T13:05:22.246Z,989.83
2016-11-07T13:06:32.980Z,989.82
2016-11-07T13:07:43.346Z,989.82
2016-11-07T13:08:54.091Z,989.85
2016-11-07T13:10:05.441Z,989.91
2016-11-07T13:11:16.380Z,989.91
2016-11-07T13:12:26.803Z,989.93
2016-11-07T13:13:37.701Z,989.92
2016-11-07T13:14:48.772Z,989.92
2016-11-07T13:16:00.719Z,989.93
2016-11-07T13:17:12.589Z,989.96
2016-11-07T13:18:23.874Z,989.91
2016-11-07T13:19:35.478Z,989.94
2016-11-07T13:20:46.641Z,989.98
2016-11-07T13:21:58.446Z,989.94
2016-11-07T13:23:09.318Z,989.99
2016-11-07T13:24:19.531Z,989.98
2016-11-07T13:25:31.516Z,989.98
2016-11-07T13:26:42.691Z,989.97
2016-11-07T13:27:55.042Z,989.94
2016-11-07T13:29:05.162Z,989.98
2016-11-07T13:30:15.933Z,989.94
2016-11-07T13:31:26.835Z,989.95
2016-11-07T13:32:39.925Z,989.93
2016-11-07T13:33:50.584Z,989.94
2016-11-07T13:35:01.655Z,989.95
2016-11-07T13:36:12.053Z,989.96
2016-11-07T13:37:23.441Z,989.97
2016-11-07T13:38:35.286Z,989.97
2016-11-07T13:39:46.062Z,989.98
2016-11-07T13:40:56.915Z,989.99
2016-11-07T13:42:07.274Z,990
2016-11-07T13:43:18.418Z,989.99
2016-11-07T13:44:30.570Z,989.99
2016-11-07T13:45:41.330Z,989.96
2016-11-07T13:46:52.317Z,989.96
2016-11-07T13:48:02.816Z,989.92
2016-11-07T13:49:14.538Z,989.94
2016-11-07T13:50:25.312Z,989.93
2016-11-07T13:51:35.942Z,989.96
2016-11-07T13:52:47.247Z,989.96
2016-11-07T13:53:57.977Z,989.99
2016-11-07T13:55:10.024Z,989.99
2016-11-07T13:56:22.229Z,989.98
2016-11-07T13:57:35.079Z,989.96
2016-11-07T13:58:45.780Z,989.94
2016-11-07T13:59:55.775Z,989.95
2016-11-07T14:01:05.763Z,989.9
2016-11-07T14:02:15.745Z,989.94
2016-11-07T14:03:25.433Z,989.91
2016-11-07T14:04:35.431Z,989.89
2016-11-07T14:05:45.423Z,989.91
2016-11-07T14:06:55.702Z,989.95
2016-11-07T14:08:05.711Z,989.97
2016-11-07T14:09:15.696Z,989.98
2016-11-07T14:10:25.404Z,989.98
2016-11-07T14:11:35.409Z,990.02
2016-11-07T14:12:45.712Z,990.02
2016-11-07T14:13:56.004Z,990.07
2016-11-07T14:15:05.705Z,990.05
2016-11-07T14:16:15.686Z,990.05
2016-11-07T14:17:25.675Z,990.1
2016-11-07T14:18:35.684Z,990.11
2016-11-07T14:19:45.963Z,990.14
2016-11-07T14:20:56.273Z,990.12
2016-11-07T14:22:06.568Z,990.11
2016-11-07T14:23:16.547Z,990.1
2016-11-07T14:24:26.873Z,990.11
2016-11-07T14:25:37.184Z,990.11
2016-11-07T14:26:47.183Z,990.12
2016-11-07T14:27:57.475Z,990.12
2016-11-07T14:29:07.786Z,990.1
2016-11-07T14:30:17.453Z,990.11
2016-11-07T14:31:27.912Z,990.11
2016-11-07T14:32:38.204Z,990.18
2016-11-07T14:33:48.195Z,990.19
2016-11-07T14:34:58.543Z,990.15
2016-11-07T14:36:08.519Z,990.17
2016-11-07T14:37:18.208Z,990.18
2016-11-07T14:38:28.212Z,990.2
2016-11-07T14:39:38.507Z,990.18
2016-11-07T14:40:48.812Z,990.23
2016-11-07T14:41:59.105Z,990.19
2016-11-07T14:43:09.099Z,990.19
2016-11-07T14:44:19.397Z,990.21
2016-11-07T14:45:29.439Z,990.18
2016-11-07T14:46:39.733Z,990.2
2016-11-07T14:47:50.526Z,990.17
2016-11-07T14:49:00.810Z,990.17
2016-11-07T14:50:11.099Z,990.18
2016-11-07T14:51:20.783Z,990.16
2016-11-07T14:52:31.104Z,990.15
2016-11-07T14:53:40.797Z,990.18
2016-11-07T14:54:50.788Z,990.18
2016-11-07T14:56:00.455Z,990.18
2016-11-07T14:57:10.745Z,990.18
2016-11-07T14:58:20.731Z,990.21
2016-11-07T14:59:30.997Z,990.16
2016-11-07T15:00:40.977Z,990.19
2016-11-07T15:01:51.301Z,990.21
2016-11-07T15:03:01.271Z,990.2
2016-11-07T15:04:11.270Z,990.22
2016-11-07T15:05:21.321Z,990.21
2016-11-07T15:06:31.322Z,990.21
2016-11-07T15:07:41.010Z,990.26